Monday, June 24, 2019, 8:06 PM EDT
Back to Local

KMFV, Melfa / Accomack Airport

Location: Melfa, VA, United States Lat: 37.65
Local Time: 8:06 PM EDT ( 0:06 GMT) Lon: -75.767
Time Zone: US/Eastern Elev: 49 ft

Show me the last for .
Show Coded

Time T Td Feel RH Dir Speed Gust Alt SLP Vis Weather Sky Remarks
2019-06-24 19:35 78 72 82 81 160° 6 - 29.86 - 10 CLR None
2019-06-24 19:15 78 71 82 78 170° 9 - 29.86 - 10 CLR None
2019-06-24 18:55 80 71 84 75 170° 13 - 29.86 - 10 CLR None
2019-06-24 18:35 81 71 85 72 170° 12 - 29.86 - 10 CLR None
2019-06-24 18:15 81 71 85 71 170° 13 20 29.86 - 10 CLR None
2019-06-24 17:55 81 70 85 69 170° 13 - 29.86 - 10 CLR None
2019-06-24 17:35 82 69 86 66 180° 15 18 29.87 - 10 CLR None
2019-06-24 17:15 83 69 87 63 180° 20 - 29.87 - 10 CLR None
2019-06-24 16:55 83 69 87 62 170° 14 20 29.87 - 10 CLR None
2019-06-24 16:35 84 70 88 62 180° 14 18 29.88 - 10 CLR None
2019-06-24 16:15 83 69 88 61 200° 14 - 29.88 - 10 CLR None
2019-06-24 15:55 83 69 87 62 170° 16 21 29.89 - 10 CLR None
2019-06-24 15:35 84 69 88 61 180° 15 21 29.89 - 10 CLR None
2019-06-24 15:15 84 69 89 60 190° 14 20 29.90 - 10 CLR None
2019-06-24 14:55 84 69 88 60 160° 13 20 29.90 - 10 CLR None
2019-06-24 14:35 86 69 91 57 160° 9 16 29.90 - 10 CLR None
2019-06-24 14:15 85 69 89 59 160° 13 18 29.91 - 10 CLR None
2019-06-24 13:55 85 69 89 58 200° 12 - 29.91 - 10 CLR 6-hr Min Temp (2pm): 74.8°F
6-hr Max Temp (2pm): 86.9°F
2019-06-24 13:35 86 68 90 56 160° 12 - 29.91 - 10 CLR None
2019-06-24 13:15 86 67 89 52 160° 10 - 29.91 - 10 CLR None
2019-06-24 12:55 86 60 87 41 200° 10 - 29.92 - 10 CLR None
2019-06-24 12:35 86 63 87 45 210° 10 - 29.93 - 10 CLR None
2019-06-24 12:15 84 65 87 51 210° 8 - 29.93 - 10 CLR None
2019-06-24 11:55 84 64 86 50 230° 3 - 29.94 - 10 CLR None
2019-06-24 11:35 84 63 86 50 200° 5 - 29.94 - 10 SCT035 None
2019-06-24 11:15 83 66 86 55 270° 7 - 29.95 - 10 CLR None
2019-06-24 10:55 83 66 86 57 220° 7 - 29.94 - 10 CLR None
2019-06-24 10:35 81 67 84 62 270° 7 - 29.94 - 10 SCT026 None
2019-06-24 10:15 81 67 84 62 250° 7 - 29.94 - 10 SCT026 None
2019-06-24 09:55 81 67 84 64 250° 8 - 29.94 - 10 CLR None
2019-06-24 09:35 80 67 83 65 260° 10 - 29.94 - 10 CLR None
2019-06-24 09:15 80 67 82 66 250° 8 - 29.94 - 10 CLR None
2019-06-24 08:55 79 67 82 67 260° 9 - 29.94 - 10 CLR None
2019-06-24 08:35 78 67 81 69 240° 9 - 29.94 - 10 CLR None
2019-06-24 08:15 76 67 79 74 250° 6 - 29.94 - 10 CLR None
2019-06-24 07:55 75 67 78 76 230° 5 - 29.95 - 10 CLR 6-hr Min Temp (8am): 64.4°F
6-hr Max Temp (8am): 74.7°F
2019-06-24 07:35 74 67 77 78 220° 5 - 29.95 - 10 CLR None
2019-06-24 07:15 70 66 76 86 200° 3 - 29.94 - 10 CLR None
2019-06-24 06:55 68 65 - 89 220° 3 - 29.94 - 10 CLR None
2019-06-24 06:35 65 63 - 93 220° 3 - 29.94 - 10 CLR None
2019-06-24 06:15 64 62 - 92 220° 3 - 29.94 - 10 CLR None
2019-06-24 05:55 67 64 - 91 210° 5 - 29.93 - 10 CLR None
2019-06-24 05:35 66 63 - 91 190° 3 - 29.92 - 10 CLR None
2019-06-24 05:15 66 63 - 90 200° 5 - 29.93 - 10 CLR None
2019-06-24 04:55 67 64 - 89 200° 5 - 29.93 - 10 CLR None
2019-06-24 04:35 66 63 - 88 210° 5 - 29.92 - 10 CLR None
2019-06-24 04:15 67 63 - 87 220° 6 - 29.93 - 10 CLR None
2019-06-24 03:55 66 62 - 87 210° 5 - 29.93 - 10 CLR None
2019-06-24 03:35 67 62 - 85 220° 6 - 29.93 - 10 CLR None
2019-06-24 03:15 66 61 - 84 200° 6 - 29.93 - 10 CLR None
2019-06-24 02:55 66 61 - 81 210° 5 - 29.94 - 10 CLR None
2019-06-24 02:35 67 61 - 79 200° 5 - 29.94 - 10 CLR None
2019-06-24 02:15 67 60 - 80 190° 6 - 29.94 - 10 CLR None
2019-06-24 01:55 67 60 - 78 190° 6 - 29.94 - 10 CLR 6-hr Min Temp (2am): 67.1°F
6-hr Max Temp (2am): 77.0°F
2019-06-24 01:35 67 59 - 75 200° 5 - 29.95 - 10 CLR None
2019-06-24 01:15 69 60 - 70 200° 5 - 29.96 - 10 CLR None
2019-06-24 00:55 69 58 - 68 200° 7 - 29.96 - 10 CLR 24-hr Min Temp (1am): 57.6°F
24-hr Max Temp (1am): 83.3°F
2019-06-24 00:35 70 58 - 65 200° 7 - 29.96 - 10 CLR None
2019-06-24 00:15 70 57 - 65 190° 7 - 29.97 - 10 CLR None
2019-06-23 23:55 70 57 - 63 190° 7 - 29.98 - 10 CLR None
2019-06-23 23:35 70 57 - 64 190° 6 - 29.98 - 10 CLR None
2019-06-23 23:15 70 58 - 65 200° 7 - 29.98 - 10 CLR None
2019-06-23 22:55 70 59 - 67 200° 7 - 29.98 - 10 CLR None
2019-06-23 22:35 70 58 - 66 200° 6 - 29.99 - 10 CLR None
2019-06-23 22:15 69 58 - 65 190° 7 - 29.98 - 10 CLR None
2019-06-23 21:55 70 58 76 65 180° 6 - 29.99 - 10 CLR None
2019-06-23 21:35 71 58 76 64 190° 6 - 29.98 - 10 CLR None
2019-06-23 21:15 72 58 76 62 190° 6 - 29.97 - 10 CLR None
2019-06-23 20:55 73 58 77 61 180° 5 - 29.98 - 10 CLR None
2019-06-23 20:35 74 59 77 59 180° 8 - 29.98 - 10 CLR None
2019-06-23 20:15 75 62 78 62 170° 7 - 29.97 - 10 CLR None

Support USWX by starting your Amazon purchase here.